weather.gov     
National Weather Service

Terminal Aerodrome Forecast
NWS Homepage
This page is being discontinued on March 12, 2014.
The same data is available at this site. Please update your bookmarks.
Thank you, and we apologize for the inconvenience.
Please send an email to SR-SRH.Webmaster@noaa.gov with any concerns.


Current Version
Previous Version:    01  02  03  04  05  06  07  08  09  10  11  12  13  14  15  16  17  18  19  20  21  22  23  24  25  26  27  28  29  30  
   31  32  33  34  35  36  37  38  39  40  41  42  43  44  45  46  47  48  49  50  51  52  53  54  55  56  57  58  59  60  
[Printable]
667
FTUS44 KHGX 172333
TAFHOU
TAF
KHOU 172333Z 1800/1824 14005KT P6SM VCSH FEW008 SCT040 BKN250
     FM180200 VRB03KT P6SM FEW008 BKN100 BKN250
     FM181000 VRB04KT P6SM VCTS FEW008 SCT015CB BKN250
      TEMPO 1810/1814 VRB15KT 2SM +TSRA SCT008 BKN015CB
     FM181400 07005KT P6SM VCTS BKN025CB BKN250
     FM181900 09007KT P6SM VCTS SCT030CB BKN250=




667
FTUS44 KHGX 172333
TAFHOU
TAF
KHOU 172333Z 1800/1824 14005KT P6SM VCSH FEW008 SCT040 BKN250
     FM180200 VRB03KT P6SM FEW008 BKN100 BKN250
     FM181000 VRB04KT P6SM VCTS FEW008 SCT015CB BKN250
      TEMPO 1810/1814 VRB15KT 2SM +TSRA SCT008 BKN015CB
     FM181400 07005KT P6SM VCTS BKN025CB BKN250
     FM181900 09007KT P6SM VCTS SCT030CB BKN250=


U.S. Dept. of Commerce
NOAA National Weather Service
1325 East West Highway
Silver Spring, MD 20910
E-mail: w-nws.webmaster@noaa.gov
Page last modified: May 16, 2007
NATIONAL WEATHER SERVICE: for Safety, for Work, for Fun - FOR LIFE